createdAt,value
2022-11-17T00:02:02.493Z,0.23
2022-11-17T00:04:30.344Z,0.63
2022-11-17T00:06:58.765Z,0.50
2022-11-17T00:09:26.411Z,0.40
2022-11-17T00:12:11.888Z,0.40
2022-11-17T00:14:41.036Z,0.30
2022-11-17T00:17:10.211Z,0.30
2022-11-17T00:19:56.296Z,1.13
2022-11-17T00:22:23.579Z,0.30
2022-11-17T00:24:50.494Z,0.37
2022-11-17T00:27:18.062Z,0.37
2022-11-17T00:29:44.903Z,0.40
2022-11-17T00:32:32.462Z,0.30
2022-11-17T00:34:59.889Z,0.53
2022-11-17T00:37:28.261Z,0.47
2022-11-17T00:40:00.354Z,0.40
2022-11-17T00:42:27.842Z,0.40
2022-11-17T00:44:54.935Z,0.70
2022-11-17T00:47:21.809Z,0.40
2022-11-17T00:49:49.026Z,0.40
2022-11-17T00:52:19.565Z,0.50
2022-11-17T00:54:46.545Z,0.63
2022-11-17T00:57:13.656Z,0.70
2022-11-17T00:59:40.632Z,0.40
2022-11-17T01:02:07.950Z,0.57
2022-11-17T01:04:34.804Z,1.77
2022-11-17T01:07:01.679Z,0.60
2022-11-17T01:09:28.837Z,0.70
2022-11-17T01:11:55.814Z,0.70
2022-11-17T01:14:25.340Z,0.80
2022-11-17T01:16:52.471Z,0.87
2022-11-17T01:19:19.517Z,0.60
2022-11-17T01:21:47.775Z,0.80
2022-11-17T01:24:16.319Z,0.60
2022-11-17T01:26:44.814Z,0.67
2022-11-17T01:29:14.242Z,0.80
2022-11-17T01:31:45.625Z,0.53
2022-11-17T01:34:13.065Z,1.00
2022-11-17T01:37:00.284Z,1.10
2022-11-17T01:39:28.063Z,1.30
2022-11-17T01:41:55.371Z,0.90
2022-11-17T01:44:36.876Z,0.83
2022-11-17T01:47:15.782Z,0.63
2022-11-17T01:49:43.502Z,0.90
2022-11-17T01:52:11.121Z,1.10
2022-11-17T01:54:40.647Z,0.87
2022-11-17T01:57:18.146Z,1.00
2022-11-17T02:00:11.735Z,0.93
2022-11-17T02:02:40.043Z,1.53
2022-11-17T02:05:16.656Z,1.33
2022-11-17T02:07:44.791Z,1.03
2022-11-17T02:10:11.643Z,1.10
2022-11-17T02:12:38.824Z,1.53
2022-11-17T02:15:06.157Z,1.50
2022-11-17T02:17:37.332Z,1.03
2022-11-17T02:20:42.527Z,1.00
2022-11-17T02:23:28.239Z,1.20
2022-11-17T02:26:00.689Z,1.83
2022-11-17T02:28:33.039Z,1.10
2022-11-17T02:31:37.258Z,1.33
2022-11-17T02:34:19.827Z,0.87
2022-11-17T02:36:53.541Z,1.07
2022-11-17T02:39:24.609Z,1.17
2022-11-17T02:42:47.921Z,1.00
2022-11-17T02:45:18.898Z,0.70
2022-11-17T02:47:48.047Z,1.03
2022-11-17T02:50:14.976Z,0.90
2022-11-17T02:52:41.778Z,0.90
2022-11-17T02:55:10.515Z,0.70
2022-11-17T02:57:39.575Z,0.70
2022-11-17T03:00:11.641Z,1.00
2022-11-17T03:03:19.573Z,1.00
2022-11-17T03:05:59.515Z,1.03
2022-11-17T03:08:54.460Z,1.17
2022-11-17T03:11:23.733Z,1.20
2022-11-17T03:13:57.248Z,1.63
2022-11-17T03:16:23.982Z,1.30
2022-11-17T03:18:53.662Z,1.13
2022-11-17T03:21:23.458Z,1.70
2022-11-17T03:23:54.096Z,1.23
2022-11-17T03:26:29.231Z,1.20
2022-11-17T03:28:57.564Z,1.23
2022-11-17T03:31:24.604Z,1.53
2022-11-17T03:33:52.118Z,1.77
2022-11-17T03:36:23.508Z,1.43
2022-11-17T03:38:55.604Z,1.33
2022-11-17T03:41:23.325Z,2.03
2022-11-17T03:43:51.962Z,2.10
2022-11-17T03:46:20.042Z,1.20
2022-11-17T03:48:58.302Z,1.63
2022-11-17T03:51:29.043Z,1.20
2022-11-17T03:53:55.956Z,1.40
2022-11-17T03:56:43.099Z,1.43
2022-11-17T03:59:25.770Z,1.20
2022-11-17T04:01:52.748Z,1.10
2022-11-17T04:04:21.296Z,1.30
2022-11-17T04:06:55.486Z,1.23
2022-11-17T04:09:24.671Z,1.17
2022-11-17T04:12:10.166Z,1.33
2022-11-17T04:14:55.459Z,1.20
2022-11-17T04:17:22.215Z,1.43
2022-11-17T04:19:48.920Z,1.10
2022-11-17T04:22:15.641Z,2.20
2022-11-17T04:24:42.396Z,1.60
2022-11-17T04:27:27.581Z,1.43
2022-11-17T04:29:54.370Z,1.33
2022-11-17T04:32:21.150Z,1.40
2022-11-17T04:34:48.526Z,1.60
2022-11-17T04:37:17.720Z,1.07
2022-11-17T04:39:45.806Z,1.10
2022-11-17T04:42:12.602Z,1.50
2022-11-17T04:44:39.309Z,1.40
2022-11-17T04:47:06.991Z,1.30
2022-11-17T04:49:34.037Z,1.30
2022-11-17T04:52:01.318Z,1.10
2022-11-17T04:54:28.449Z,1.20
2022-11-17T04:56:55.954Z,1.57
2022-11-17T04:59:23.262Z,1.43
2022-11-17T05:01:50.586Z,1.23
2022-11-17T05:04:38.020Z,0.97
2022-11-17T05:07:05.828Z,1.03
2022-11-17T05:09:32.614Z,0.67
2022-11-17T05:12:18.014Z,0.80
2022-11-17T05:14:47.744Z,0.87
2022-11-17T05:17:14.476Z,0.90
2022-11-17T05:19:46.482Z,0.63
2022-11-17T05:22:36.966Z,0.83
2022-11-17T05:25:05.072Z,0.50
2022-11-17T05:27:33.869Z,0.40
2022-11-17T05:30:03.312Z,0.57
2022-11-17T05:32:30.142Z,0.70
2022-11-17T05:34:56.842Z,0.60
2022-11-17T05:37:23.740Z,0.70
2022-11-17T05:39:50.621Z,0.60
2022-11-17T05:42:17.365Z,0.73
2022-11-17T05:44:45.505Z,0.73
2022-11-17T05:47:12.224Z,0.93
2022-11-17T05:49:39.068Z,0.90
2022-11-17T05:52:06.449Z,1.10
2022-11-17T05:54:33.296Z,0.67
2022-11-17T05:57:04.250Z,0.90
2022-11-17T05:59:35.825Z,0.60
2022-11-17T06:02:13.942Z,0.63
2022-11-17T06:04:41.461Z,0.63
2022-11-17T06:07:08.440Z,0.70
2022-11-17T06:09:37.503Z,0.83
2022-11-17T06:12:06.381Z,0.50
2022-11-17T06:14:37.709Z,1.70
2022-11-17T06:17:09.680Z,0.70
2022-11-17T06:19:40.240Z,0.60
2022-11-17T06:22:12.517Z,0.60
2022-11-17T06:24:41.880Z,0.60
2022-11-17T06:27:10.141Z,0.63
2022-11-17T06:29:42.403Z,0.67
2022-11-17T06:32:13.581Z,0.90
2022-11-17T06:34:40.947Z,1.17
2022-11-17T06:37:07.682Z,1.23
2022-11-17T06:39:34.420Z,0.57
2022-11-17T06:42:01.116Z,1.03
2022-11-17T06:44:27.849Z,0.60
2022-11-17T06:46:54.696Z,0.60
2022-11-17T06:49:22.896Z,1.10
2022-11-17T06:51:49.674Z,0.60
2022-11-17T06:54:16.391Z,0.60
2022-11-17T06:56:43.810Z,0.60
2022-11-17T06:59:10.761Z,0.87
2022-11-17T07:01:37.893Z,1.40
2022-11-17T07:04:04.965Z,0.60
2022-11-17T07:06:32.792Z,0.73
2022-11-17T07:08:59.499Z,0.50
2022-11-17T07:11:26.295Z,0.40
2022-11-17T07:13:53.321Z,0.60
2022-11-17T07:16:23.801Z,0.77
2022-11-17T07:18:52.843Z,0.50
2022-11-17T07:21:20.062Z,0.50
2022-11-17T07:23:47.205Z,1.00
2022-11-17T07:26:14.555Z,0.93
2022-11-17T07:28:41.486Z,0.50
2022-11-17T07:31:09.215Z,0.60
2022-11-17T07:33:36.652Z,0.63
2022-11-17T07:36:05.857Z,0.70
2022-11-17T07:38:34.782Z,0.50
2022-11-17T07:41:02.113Z,0.77
2022-11-17T07:43:29.539Z,0.80
2022-11-17T07:45:56.775Z,0.60
2022-11-17T07:48:24.438Z,0.40
2022-11-17T07:50:51.450Z,0.60
2022-11-17T07:53:18.465Z,0.67
2022-11-17T07:55:45.281Z,0.73
2022-11-17T07:58:12.019Z,0.70
2022-11-17T08:00:38.739Z,0.60
2022-11-17T08:03:05.654Z,0.50
2022-11-17T08:05:41.589Z,0.57
2022-11-17T08:08:11.643Z,0.50
2022-11-17T08:10:38.354Z,0.60
2022-11-17T08:13:05.264Z,0.80
2022-11-17T08:15:32.266Z,0.60
2022-11-17T08:18:00.027Z,0.73
2022-11-17T08:20:29.184Z,0.50
2022-11-17T08:22:56.420Z,0.90
2022-11-17T08:25:25.663Z,0.60
2022-11-17T08:27:59.000Z,0.40
2022-11-17T08:30:26.330Z,0.70
2022-11-17T08:32:54.074Z,0.77
2022-11-17T08:35:23.190Z,0.70
2022-11-17T08:37:50.140Z,0.50
2022-11-17T08:40:18.234Z,0.50
2022-11-17T08:42:45.436Z,0.90
2022-11-17T08:45:12.527Z,0.80
2022-11-17T08:47:39.560Z,0.70
2022-11-17T08:50:07.308Z,0.70
2022-11-17T08:52:34.024Z,0.53
2022-11-17T08:55:01.113Z,0.70
2022-11-17T08:57:30.491Z,0.90
2022-11-17T08:59:57.701Z,0.97
2022-11-17T09:02:26.322Z,0.60
2022-11-17T09:04:53.096Z,0.80
2022-11-17T09:07:19.994Z,0.70
2022-11-17T09:09:47.002Z,0.80
2022-11-17T09:12:14.012Z,0.50
2022-11-17T09:14:41.383Z,1.90
2022-11-17T09:17:08.261Z,0.47
2022-11-17T09:19:34.963Z,0.80
2022-11-17T09:22:01.849Z,0.80
2022-11-17T09:24:28.965Z,0.90
2022-11-17T09:26:57.495Z,0.67
2022-11-17T09:29:24.425Z,0.60
2022-11-17T09:31:51.189Z,0.40
2022-11-17T09:34:18.182Z,0.70
2022-11-17T09:36:44.958Z,0.50
2022-11-17T09:39:11.922Z,0.80
2022-11-17T09:41:55.549Z,1.50
2022-11-17T09:44:31.359Z,0.90
2022-11-17T09:47:07.326Z,0.47
2022-11-17T09:49:42.484Z,0.90
2022-11-17T09:52:32.148Z,0.83
2022-11-17T09:55:21.330Z,0.80
2022-11-17T09:58:34.577Z,1.10
2022-11-17T10:01:01.860Z,0.70
2022-11-17T10:03:36.484Z,0.80
2022-11-17T10:06:17.527Z,0.70
2022-11-17T10:08:47.542Z,0.97
2022-11-17T10:11:31.675Z,1.37
2022-11-17T10:14:19.272Z,0.70
2022-11-17T10:16:54.532Z,0.90
2022-11-17T10:19:27.678Z,0.80
2022-11-17T10:21:56.994Z,0.87
2022-11-17T10:24:55.036Z,0.70
2022-11-17T10:27:27.864Z,0.70
2022-11-17T10:30:01.136Z,0.57
2022-11-17T10:32:33.108Z,0.80
2022-11-17T10:35:17.779Z,0.60
2022-11-17T10:37:53.727Z,0.70
2022-11-17T10:40:25.704Z,0.90
2022-11-17T10:43:18.486Z,0.80
2022-11-17T10:45:51.229Z,0.70
2022-11-17T10:48:27.289Z,1.17
2022-11-17T10:50:56.587Z,1.07
2022-11-17T10:53:43.035Z,1.50
2022-11-17T10:56:14.413Z,0.90
2022-11-17T10:59:06.552Z,0.90
2022-11-17T11:01:38.498Z,1.00
2022-11-17T11:04:07.183Z,0.90
2022-11-17T11:06:35.315Z,0.77
2022-11-17T11:09:19.097Z,0.83
2022-11-17T11:11:49.368Z,0.83
2022-11-17T11:14:20.310Z,0.93
2022-11-17T11:16:48.636Z,1.17
2022-11-17T11:19:17.033Z,0.70
2022-11-17T11:21:46.889Z,0.97
2022-11-17T11:24:23.198Z,0.70
2022-11-17T11:26:58.898Z,0.80
2022-11-17T11:29:45.693Z,0.60
2022-11-17T11:32:24.578Z,2.00
2022-11-17T11:35:03.932Z,0.80
2022-11-17T11:37:40.190Z,1.47
2022-11-17T11:40:31.607Z,0.60
2022-11-17T11:43:00.366Z,0.67
2022-11-17T11:45:33.220Z,0.80
2022-11-17T11:48:15.263Z,0.60
2022-11-17T11:51:04.160Z,0.73
2022-11-17T11:53:52.596Z,0.90
2022-11-17T11:56:35.387Z,0.53
2022-11-17T11:59:13.072Z,1.00
2022-11-17T12:01:42.876Z,0.80
2022-11-17T12:04:46.694Z,0.60
2022-11-17T12:07:38.399Z,0.50
2022-11-17T12:10:33.243Z,0.60
2022-11-17T12:13:00.490Z,0.67
2022-11-17T12:15:27.269Z,1.00
2022-11-17T12:18:01.080Z,0.70
2022-11-17T12:20:30.838Z,0.80
2022-11-17T12:23:34.732Z,0.47
2022-11-17T12:26:02.323Z,0.50
2022-11-17T12:28:29.132Z,1.00
2022-11-17T12:31:06.610Z,0.70
2022-11-17T12:33:55.533Z,0.73
2022-11-17T12:36:31.564Z,1.07
2022-11-17T12:39:03.785Z,0.60
2022-11-17T12:41:48.881Z,0.63
2022-11-17T12:44:37.433Z,0.70
2022-11-17T12:47:13.379Z,0.50
2022-11-17T12:50:11.155Z,0.60
2022-11-17T12:52:37.926Z,0.70
2022-11-17T12:55:13.703Z,0.50
2022-11-17T12:57:42.986Z,0.60
2022-11-17T13:00:17.649Z,0.70
2022-11-17T13:02:50.791Z,0.53
2022-11-17T13:05:23.336Z,0.57
2022-11-17T13:07:50.561Z,0.90
2022-11-17T13:10:27.184Z,0.93
2022-11-17T13:13:16.923Z,0.70
2022-11-17T13:15:44.658Z,0.60
2022-11-17T13:18:26.392Z,0.77
2022-11-17T13:20:53.291Z,0.77
2022-11-17T13:23:30.103Z,0.80
2022-11-17T13:26:11.873Z,1.67
2022-11-17T13:28:38.587Z,0.60
2022-11-17T13:31:05.337Z,0.73
2022-11-17T13:33:36.957Z,0.70
2022-11-17T13:36:16.537Z,0.33
2022-11-17T13:38:47.939Z,0.80
2022-11-17T13:41:16.807Z,0.50
2022-11-17T13:43:45.978Z,0.83
2022-11-17T13:46:13.911Z,0.70
2022-11-17T13:48:44.454Z,0.60
2022-11-17T13:51:20.323Z,0.60
2022-11-17T13:53:51.707Z,0.70
2022-11-17T13:56:22.382Z,0.83
2022-11-17T13:58:49.814Z,0.60
2022-11-17T14:01:24.274Z,0.80
2022-11-17T14:03:52.034Z,0.70
2022-11-17T14:06:19.158Z,0.80
2022-11-17T14:09:03.762Z,0.60
2022-11-17T14:11:30.551Z,0.60
2022-11-17T14:13:59.066Z,0.50
2022-11-17T14:16:39.656Z,0.67
2022-11-17T14:19:16.028Z,0.63
2022-11-17T14:22:08.315Z,0.80
2022-11-17T14:24:36.162Z,1.37
2022-11-17T14:27:05.287Z,0.70
2022-11-17T14:29:32.270Z,0.50
2022-11-17T14:31:58.955Z,0.60
2022-11-17T14:34:26.139Z,0.73
2022-11-17T14:36:54.590Z,0.80
2022-11-17T14:39:21.698Z,0.90
2022-11-17T14:41:50.148Z,0.73
2022-11-17T14:44:17.687Z,1.00
2022-11-17T14:46:44.606Z,0.70
2022-11-17T14:49:11.498Z,0.80
2022-11-17T14:51:38.355Z,0.57
2022-11-17T14:54:05.125Z,0.80
2022-11-17T14:56:31.898Z,0.50
2022-11-17T14:58:59.818Z,0.60
2022-11-17T15:01:31.433Z,0.63
2022-11-17T15:04:15.729Z,0.63
2022-11-17T15:06:48.503Z,0.77
2022-11-17T15:09:16.483Z,0.70
2022-11-17T15:11:43.260Z,0.60
2022-11-17T15:14:10.956Z,0.67
2022-11-17T15:16:37.765Z,0.73
2022-11-17T15:19:04.414Z,0.50
2022-11-17T15:21:31.195Z,0.70
2022-11-17T15:23:58.033Z,0.90
2022-11-17T15:26:24.812Z,0.50
2022-11-17T15:28:51.534Z,0.53
2022-11-17T15:31:20.170Z,0.50
2022-11-17T15:33:47.871Z,0.63
2022-11-17T15:36:20.087Z,0.57
2022-11-17T15:38:47.885Z,0.50
2022-11-17T15:41:15.862Z,0.70
2022-11-17T15:43:43.831Z,0.70
2022-11-17T15:46:12.662Z,0.50
2022-11-17T15:48:42.385Z,0.60
2022-11-17T15:51:17.133Z,0.80
2022-11-17T15:53:45.570Z,0.80
2022-11-17T15:56:15.959Z,0.77
2022-11-17T15:58:43.470Z,0.67
2022-11-17T16:01:33.296Z,0.90
2022-11-17T16:04:08.498Z,1.00
2022-11-17T16:06:37.218Z,0.80
2022-11-17T16:09:04.993Z,1.10
2022-11-17T16:11:31.923Z,0.90
2022-11-17T16:13:59.665Z,0.70
2022-11-17T16:16:34.700Z,0.80
2022-11-17T16:19:02.025Z,0.77
2022-11-17T16:21:28.698Z,1.00
2022-11-17T16:23:56.860Z,1.10
2022-11-17T16:26:25.550Z,0.97
2022-11-17T16:29:10.800Z,0.77
2022-11-17T16:31:38.158Z,0.70
2022-11-17T16:34:07.351Z,1.07
2022-11-17T16:39:23.421Z,2.27
2022-11-17T16:57:28.034Z,1.27
2022-11-17T17:02:57.730Z,1.50
2022-11-17T17:05:25.338Z,2.07
2022-11-17T17:26:15.056Z,1.90
2022-11-17T17:28:43.869Z,1.30
2022-11-17T17:31:18.087Z,1.10
2022-11-17T17:33:48.194Z,1.10
2022-11-17T17:36:17.793Z,1.47
2022-11-17T17:38:46.827Z,1.60
2022-11-17T17:41:19.011Z,1.20
2022-11-17T17:43:47.672Z,1.40
2022-11-17T17:46:17.218Z,1.40
2022-11-17T17:48:45.375Z,1.30
2022-11-17T17:51:20.306Z,1.40
2022-11-17T17:53:50.306Z,1.50
2022-11-17T17:56:19.466Z,1.60
2022-11-17T17:58:48.953Z,1.30
2022-11-17T18:01:21.153Z,1.50
2022-11-17T18:03:49.166Z,1.70
2022-11-17T18:06:18.898Z,1.70
2022-11-17T18:08:46.825Z,1.60
2022-11-17T18:11:19.114Z,1.77
2022-11-17T18:13:49.047Z,1.83
2022-11-17T18:16:18.663Z,2.13
2022-11-17T18:18:46.403Z,1.40
2022-11-17T18:21:15.856Z,1.30
2022-11-17T18:23:43.193Z,1.10
2022-11-17T18:26:16.601Z,1.30
2022-11-17T18:28:49.485Z,1.43
2022-11-17T18:31:17.020Z,2.40
2022-11-17T18:33:47.823Z,2.10
2022-11-17T18:36:14.674Z,2.37
2022-11-17T18:38:41.381Z,2.80
2022-11-17T18:41:10.383Z,2.97
2022-11-17T18:43:37.695Z,2.97
2022-11-17T18:46:08.130Z,3.07
2022-11-17T18:48:37.084Z,2.90
2022-11-17T18:51:22.007Z,2.30
2022-11-17T18:53:50.108Z,2.00
2022-11-17T18:56:20.494Z,1.77
2022-11-17T18:58:49.317Z,2.30
2022-11-17T19:01:18.773Z,2.40
2022-11-17T19:03:48.369Z,2.30
2022-11-17T19:06:16.565Z,2.20
2022-11-17T19:08:43.935Z,1.90
2022-11-17T19:11:13.348Z,1.83
2022-11-17T19:13:41.545Z,2.50
2022-11-17T19:16:11.005Z,1.70
2022-11-17T19:18:38.259Z,2.60
2022-11-17T19:21:21.497Z,3.87
2022-11-17T19:23:51.843Z,3.10
2022-11-17T19:26:23.729Z,3.20
2022-11-17T19:28:51.010Z,5.30
2022-11-17T19:31:19.987Z,6.90
2022-11-17T19:33:48.375Z,3.50
2022-11-17T19:36:21.663Z,3.40
2022-11-17T19:38:53.229Z,2.60
2022-11-17T19:41:32.055Z,3.00
2022-11-17T19:44:05.410Z,3.20
2022-11-17T19:46:44.883Z,1.63
2022-11-17T19:49:12.866Z,1.90
2022-11-17T19:51:42.775Z,1.70
2022-11-17T19:54:19.850Z,2.17
2022-11-17T20:00:16.956Z,1.70
2022-11-17T20:02:54.886Z,1.60
2022-11-17T20:05:28.056Z,1.80
2022-11-17T20:07:58.135Z,2.13
2022-11-17T20:10:35.642Z,5.30
2022-11-17T20:14:21.893Z,2.40
2022-11-17T20:16:21.032Z,2.10
2022-11-17T20:18:56.322Z,1.80
2022-11-17T20:21:24.747Z,1.67
2022-11-17T20:23:52.470Z,1.90
2022-11-17T20:26:22.287Z,1.20
2022-11-17T20:28:51.177Z,1.70
2022-11-17T20:31:21.806Z,1.33
2022-11-17T20:33:51.011Z,1.40
2022-11-17T20:36:21.704Z,1.20
2022-11-17T20:38:53.689Z,1.20
2022-11-17T20:41:26.588Z,1.17
2022-11-17T20:44:01.117Z,1.30
2022-11-17T20:46:28.696Z,1.07
2022-11-17T20:49:03.200Z,1.20
2022-11-17T20:51:30.256Z,3.37
2022-11-17T20:54:01.392Z,3.83
2022-11-17T20:56:31.960Z,2.97
2022-11-17T20:58:59.234Z,2.60
2022-11-17T21:01:31.478Z,2.97
2022-11-17T21:03:58.999Z,2.97
2022-11-17T21:06:26.256Z,2.60
2022-11-17T21:08:53.235Z,1.57
2022-11-17T21:11:40.553Z,1.80
2022-11-17T21:14:09.136Z,2.20
2022-11-17T21:16:38.027Z,1.73
2022-11-17T21:19:05.275Z,1.83
2022-11-17T21:21:32.274Z,1.80
2022-11-17T21:24:00.257Z,1.70
2022-11-17T21:26:30.660Z,1.37
2022-11-17T21:29:03.164Z,1.40
2022-11-17T21:31:33.620Z,1.40
2022-11-17T21:34:02.286Z,1.47
2022-11-17T21:36:30.742Z,1.73
2022-11-17T21:38:58.196Z,1.60
2022-11-17T21:41:30.091Z,1.30
2022-11-17T21:44:01.097Z,1.33
2022-11-17T21:46:30.360Z,1.40
2022-11-17T21:48:58.954Z,1.40
2022-11-17T21:51:34.139Z,1.70
2022-11-17T21:54:03.774Z,1.23
2022-11-17T21:56:32.070Z,1.20
2022-11-17T21:59:03.746Z,1.30
2022-11-17T22:01:31.480Z,1.90
2022-11-17T22:03:58.502Z,1.40
2022-11-17T22:06:25.910Z,1.40
2022-11-17T22:08:55.288Z,1.60
2022-11-17T22:11:36.518Z,1.53
2022-11-17T22:14:11.861Z,1.47
2022-11-17T22:16:44.272Z,1.83
2022-11-17T22:19:12.369Z,1.60
2022-11-17T22:21:39.983Z,2.17
2022-11-17T22:24:08.419Z,1.53
2022-11-17T22:26:38.607Z,1.83
2022-11-17T22:29:07.775Z,1.70
2022-11-17T22:31:34.867Z,1.90
2022-11-17T22:34:01.807Z,1.80
2022-11-17T22:36:28.623Z,2.10
2022-11-17T22:38:55.500Z,1.73
2022-11-17T22:41:22.775Z,1.57
2022-11-17T22:43:56.554Z,1.50
2022-11-17T22:46:25.918Z,1.70
2022-11-17T22:48:52.853Z,1.87
2022-11-17T22:51:38.886Z,2.07
2022-11-17T22:54:06.595Z,1.67
2022-11-17T22:56:33.963Z,1.60
2022-11-17T22:59:01.018Z,1.70
2022-11-17T23:01:27.880Z,1.47
2022-11-17T23:03:54.753Z,1.67
2022-11-17T23:06:22.919Z,1.80
2022-11-17T23:08:50.846Z,1.73
2022-11-17T23:14:06.186Z,1.90
2022-11-17T23:16:33.360Z,1.60
2022-11-17T23:19:00.337Z,1.50
2022-11-17T23:21:27.143Z,1.70
2022-11-17T23:23:54.158Z,2.10
2022-11-17T23:26:21.189Z,1.33
2022-11-17T23:28:48.526Z,1.63
2022-11-17T23:31:16.884Z,1.30
2022-11-17T23:33:45.630Z,1.27
2022-11-17T23:36:14.819Z,1.70
2022-11-17T23:38:41.899Z,1.50
2022-11-17T23:41:11.157Z,1.40
2022-11-17T23:43:38.113Z,1.37
2022-11-17T23:46:07.194Z,1.40
2022-11-17T23:48:34.041Z,1.57
2022-11-17T23:51:06.844Z,2.00
2022-11-17T23:53:33.794Z,1.70
2022-11-17T23:56:01.130Z,1.60
2022-11-17T23:58:28.580Z,1.70
